createdAt,value
2023-02-26T00:00:35.698Z,0.10
2023-02-26T00:03:02.428Z,0.20
2023-02-26T00:05:29.126Z,0.10
2023-02-26T00:07:55.835Z,0.10
2023-02-26T00:10:22.483Z,0.10
2023-02-26T00:12:49.452Z,0.10
2023-02-26T00:15:18.484Z,0.10
2023-02-26T00:17:52.927Z,0.00
2023-02-26T00:20:19.816Z,0.00
2023-02-26T00:22:46.804Z,0.00
2023-02-26T00:25:14.212Z,0.00
2023-02-26T00:27:41.538Z,-0.10
2023-02-26T00:30:09.569Z,-0.10
2023-02-26T00:32:36.866Z,-0.10
2023-02-26T00:35:03.987Z,-0.10
2023-02-26T00:37:35.400Z,-0.10
2023-02-26T00:40:26.672Z,-0.10
2023-02-26T00:42:53.707Z,-0.10
2023-02-26T00:45:21.340Z,-0.10
2023-02-26T00:48:14.009Z,-0.10
2023-02-26T00:50:50.784Z,-0.20
2023-02-26T00:53:41.501Z,-0.20
2023-02-26T00:56:08.168Z,-0.20
2023-02-26T00:58:35.016Z,-0.20
2023-02-26T01:01:01.835Z,-0.20
2023-02-26T01:03:31.159Z,-0.20
2023-02-26T01:05:58.013Z,-0.20
2023-02-26T01:08:32.612Z,-0.30
2023-02-26T01:10:59.487Z,-0.30
2023-02-26T01:13:26.615Z,-0.30
2023-02-26T01:15:59.134Z,-0.30
2023-02-26T01:18:37.666Z,-0.30
2023-02-26T01:21:08.445Z,-0.40
2023-02-26T01:23:46.999Z,-0.40
2023-02-26T01:26:24.176Z,-0.40
2023-02-26T01:28:51.493Z,-0.40
2023-02-26T01:31:43.008Z,-0.50
2023-02-26T01:34:26.685Z,-0.50
2023-02-26T01:37:14.209Z,-0.50
2023-02-26T01:40:04.597Z,-0.50
2023-02-26T01:42:37.963Z,-0.50
2023-02-26T01:45:17.076Z,-0.50
2023-02-26T01:47:51.470Z,-0.50
2023-02-26T01:50:29.787Z,-0.60
2023-02-26T01:53:25.790Z,-0.60
2023-02-26T01:56:17.747Z,-0.60
2023-02-26T01:58:46.755Z,-0.60
2023-02-26T02:01:13.545Z,-0.60
2023-02-26T02:03:42.466Z,-0.60
2023-02-26T02:06:23.228Z,-0.70
2023-02-26T02:08:50.241Z,-0.70
2023-02-26T02:11:17.435Z,-0.70
2023-02-26T02:14:04.176Z,-0.70
2023-02-26T02:16:39.544Z,-0.70
2023-02-26T02:19:09.363Z,-0.80
2023-02-26T02:21:53.095Z,-0.80
2023-02-26T02:24:35.322Z,-0.80
2023-02-26T02:27:04.378Z,-0.80
2023-02-26T02:29:37.169Z,-0.80
2023-02-26T02:32:24.914Z,-0.80
2023-02-26T02:35:13.760Z,-0.80
2023-02-26T02:38:07.826Z,-0.80
2023-02-26T02:40:41.084Z,-0.90
2023-02-26T02:43:13.066Z,-0.90
2023-02-26T02:45:40.038Z,-0.90
2023-02-26T02:48:13.882Z,-1.00
2023-02-26T02:50:45.612Z,-1.00
2023-02-26T02:53:41.236Z,-1.00
2023-02-26T02:56:15.842Z,-1.00
2023-02-26T02:58:49.051Z,-1.00
2023-02-26T03:01:19.945Z,-1.00
2023-02-26T03:04:00.734Z,-1.00
2023-02-26T03:06:27.848Z,-1.00
2023-02-26T03:08:55.282Z,-1.00
2023-02-26T03:11:22.119Z,-1.20
2023-02-26T03:13:50.854Z,-1.10
2023-02-26T03:16:42.458Z,-1.10
2023-02-26T03:19:25.652Z,-1.10
2023-02-26T03:22:02.848Z,-1.10
2023-02-26T03:24:40.666Z,-1.10
2023-02-26T03:27:25.346Z,-1.20
2023-02-26T03:30:16.229Z,-1.20
2023-02-26T03:32:46.115Z,-1.20
2023-02-26T03:35:20.150Z,-1.20
2023-02-26T03:37:50.417Z,-1.20
2023-02-26T03:40:27.077Z,-1.20
2023-02-26T03:43:17.879Z,-1.10
2023-02-26T03:45:48.740Z,-1.10
2023-02-26T03:48:20.571Z,-1.10
2023-02-26T03:50:51.162Z,-1.10
2023-02-26T03:53:57.945Z,-1.20
2023-02-26T03:56:41.798Z,-1.10
2023-02-26T03:59:09.069Z,-1.30
2023-02-26T04:01:45.464Z,-1.20
2023-02-26T04:04:47.600Z,-1.20
2023-02-26T04:07:16.793Z,-1.30
2023-02-26T04:09:46.650Z,-1.30
2023-02-26T04:12:13.926Z,-1.30
2023-02-26T04:14:40.753Z,-1.40
2023-02-26T04:17:07.646Z,-1.40
2023-02-26T04:19:34.292Z,-1.30
2023-02-26T04:22:01.145Z,-1.30
2023-02-26T04:24:27.958Z,-1.30
2023-02-26T04:26:54.672Z,-1.30
2023-02-26T04:29:21.463Z,-1.30
2023-02-26T04:31:48.350Z,-1.40
2023-02-26T04:34:15.383Z,-1.40
2023-02-26T04:36:42.144Z,-1.40
2023-02-26T04:39:10.679Z,-1.40
2023-02-26T04:41:38.828Z,-1.40
2023-02-26T04:44:06.307Z,-1.40
2023-02-26T04:46:33.825Z,-1.40
2023-02-26T04:49:00.588Z,-1.50
2023-02-26T04:51:27.342Z,-1.50
2023-02-26T04:53:54.112Z,-1.50
2023-02-26T04:56:21.248Z,-1.50
2023-02-26T04:58:47.947Z,-1.50
2023-02-26T05:01:15.024Z,-1.50
2023-02-26T05:03:41.766Z,-1.50
2023-02-26T05:06:08.489Z,-1.50
2023-02-26T05:08:35.544Z,-1.60
2023-02-26T05:11:02.300Z,-1.60
2023-02-26T05:13:29.083Z,-1.60
2023-02-26T05:15:55.765Z,-1.60
2023-02-26T05:18:22.512Z,-1.70
2023-02-26T05:20:56.520Z,-1.70
2023-02-26T05:23:23.433Z,-1.70
2023-02-26T05:25:50.142Z,-1.80
2023-02-26T05:28:17.231Z,-1.80
2023-02-26T05:30:44.051Z,-1.80
2023-02-26T05:33:10.746Z,-1.80
2023-02-26T05:35:37.533Z,-1.80
2023-02-26T05:38:04.350Z,-1.80
2023-02-26T05:40:31.202Z,-1.80
2023-02-26T05:42:58.075Z,-1.80
2023-02-26T05:45:24.953Z,-1.80
2023-02-26T05:47:51.813Z,-1.80
2023-02-26T05:50:18.735Z,-1.80
2023-02-26T05:52:45.457Z,-1.90
2023-02-26T05:55:12.130Z,-1.80
2023-02-26T05:57:38.960Z,-1.90
2023-02-26T06:00:08.063Z,-2.00
2023-02-26T06:02:34.792Z,-2.00
2023-02-26T06:05:01.465Z,-2.00
2023-02-26T06:07:28.174Z,-2.00
2023-02-26T06:09:54.878Z,-2.00
2023-02-26T06:12:21.576Z,-2.00
2023-02-26T06:14:48.247Z,-2.10
2023-02-26T06:17:15.108Z,-2.20
2023-02-26T06:19:41.791Z,-2.20
2023-02-26T06:22:08.595Z,-2.20
2023-02-26T06:24:35.267Z,-2.20
2023-02-26T06:27:01.989Z,-2.20
2023-02-26T06:29:28.708Z,-2.30
2023-02-26T06:31:55.703Z,-2.20
2023-02-26T06:34:23.126Z,-2.30
2023-02-26T06:36:50.083Z,-2.30
2023-02-26T06:39:16.881Z,-2.30
2023-02-26T06:41:43.878Z,-2.40
2023-02-26T06:44:11.606Z,-2.40
2023-02-26T06:46:38.614Z,-2.30
2023-02-26T06:49:05.549Z,-2.30
2023-02-26T06:51:32.444Z,-2.30
2023-02-26T06:53:59.204Z,-2.40
2023-02-26T06:56:26.386Z,-2.30
2023-02-26T06:58:53.416Z,-2.30
2023-02-26T07:01:20.153Z,-2.30
2023-02-26T07:03:47.116Z,-2.30
2023-02-26T07:06:26.833Z,-2.30
2023-02-26T07:08:55.385Z,-2.30
2023-02-26T07:11:22.706Z,-2.30
2023-02-26T07:13:51.456Z,-2.20
2023-02-26T07:16:18.363Z,-2.30
2023-02-26T07:18:45.111Z,-2.30
2023-02-26T07:21:11.845Z,-2.20
2023-02-26T07:23:38.707Z,-2.20
2023-02-26T07:26:05.557Z,-2.30
2023-02-26T07:28:32.227Z,-2.20
2023-02-26T07:30:59.131Z,-2.20
2023-02-26T07:33:28.378Z,-2.10
2023-02-26T07:35:55.471Z,-2.10
2023-02-26T07:38:22.269Z,-2.10
2023-02-26T07:40:49.110Z,-2.00
2023-02-26T07:43:15.808Z,-1.90
2023-02-26T07:45:42.620Z,-1.90
2023-02-26T07:48:09.302Z,-2.00
2023-02-26T07:50:36.061Z,-1.90
2023-02-26T07:53:02.894Z,-1.90
2023-02-26T07:55:29.980Z,-1.90
2023-02-26T07:57:56.683Z,-1.80
2023-02-26T08:00:23.385Z,-2.00
2023-02-26T08:02:50.258Z,-1.80
2023-02-26T08:05:17.048Z,-1.80
2023-02-26T08:07:43.809Z,-1.80
2023-02-26T08:10:11.819Z,-1.80
2023-02-26T08:12:38.772Z,-1.90
2023-02-26T08:15:06.622Z,-1.80
2023-02-26T08:17:34.020Z,-1.80
2023-02-26T08:20:00.781Z,-1.80
2023-02-26T08:22:27.569Z,-1.90
2023-02-26T08:24:54.299Z,-1.80
2023-02-26T08:27:21.155Z,-1.60
2023-02-26T08:29:50.281Z,-1.60
2023-02-26T08:32:19.816Z,-1.50
2023-02-26T08:34:47.279Z,-1.40
2023-02-26T08:37:14.496Z,-1.30
2023-02-26T08:39:41.400Z,-1.50
2023-02-26T08:42:09.365Z,-1.50
2023-02-26T08:44:36.686Z,-1.40
2023-02-26T08:47:04.027Z,-1.50
2023-02-26T08:49:30.864Z,-1.50
2023-02-26T08:51:57.623Z,-1.40
2023-02-26T08:54:24.913Z,-1.40
2023-02-26T08:56:53.448Z,-1.40
2023-02-26T08:59:20.192Z,-1.50
2023-02-26T09:01:46.993Z,-1.60
2023-02-26T09:04:14.043Z,-1.60
2023-02-26T09:06:40.794Z,-1.70
2023-02-26T09:09:07.758Z,-1.80
2023-02-26T09:11:36.748Z,-1.80
2023-02-26T09:14:05.167Z,-1.70
2023-02-26T09:16:35.279Z,-1.70
2023-02-26T09:19:02.163Z,-1.60
2023-02-26T09:21:29.132Z,-1.70
2023-02-26T09:23:55.925Z,-1.60
2023-02-26T09:26:23.155Z,-1.60
2023-02-26T09:28:50.252Z,-1.60
2023-02-26T09:31:17.350Z,-1.60
2023-02-26T09:33:44.211Z,-1.70
2023-02-26T09:36:11.186Z,-1.70
2023-02-26T09:38:37.902Z,-1.60
2023-02-26T09:41:15.219Z,-1.60
2023-02-26T09:44:06.447Z,-1.50
2023-02-26T09:46:48.206Z,-1.50
2023-02-26T09:49:59.696Z,-1.50
2023-02-26T09:52:30.366Z,-1.50
2023-02-26T09:55:22.473Z,-1.50
2023-02-26T09:57:52.202Z,-1.50
2023-02-26T10:00:32.386Z,-1.60
2023-02-26T10:03:26.995Z,-1.40
2023-02-26T10:06:27.737Z,-1.40
2023-02-26T10:09:13.257Z,-1.50
2023-02-26T10:11:56.250Z,-1.50
2023-02-26T10:14:28.594Z,-1.50
2023-02-26T10:17:00.941Z,-1.50
2023-02-26T10:19:34.020Z,-1.40
2023-02-26T10:22:24.414Z,-1.50
2023-02-26T10:25:15.321Z,-1.40
2023-02-26T10:27:56.845Z,-1.40
2023-02-26T10:30:47.191Z,-1.30
2023-02-26T10:33:50.364Z,-1.30
2023-02-26T10:36:32.693Z,-1.30
2023-02-26T10:39:03.839Z,-1.30
2023-02-26T10:41:34.496Z,-1.30
2023-02-26T10:44:12.692Z,-1.30
2023-02-26T10:46:51.994Z,-1.30
2023-02-26T10:49:42.865Z,-1.30
2023-02-26T10:52:20.289Z,-1.20
2023-02-26T10:55:26.323Z,-1.20
2023-02-26T10:58:14.310Z,-1.20
2023-02-26T11:00:43.376Z,-1.20
2023-02-26T11:03:18.989Z,-1.20
2023-02-26T11:05:46.770Z,-1.20
2023-02-26T11:08:26.868Z,-1.20
2023-02-26T11:10:59.204Z,-1.20
2023-02-26T11:13:28.865Z,-1.10
2023-02-26T11:15:58.428Z,-1.10
2023-02-26T11:18:29.963Z,-1.00
2023-02-26T11:21:00.201Z,-0.90
2023-02-26T11:23:30.582Z,-0.80
2023-02-26T11:26:09.181Z,-0.80
2023-02-26T11:28:42.421Z,-0.80
2023-02-26T11:31:11.994Z,-0.80
2023-02-26T11:33:43.833Z,-0.80
2023-02-26T11:36:16.529Z,-0.70
2023-02-26T11:38:52.587Z,-0.70
2023-02-26T11:41:19.485Z,-0.60
2023-02-26T11:43:54.616Z,-0.70
2023-02-26T11:46:25.376Z,-0.70
2023-02-26T11:48:55.527Z,-0.70
2023-02-26T11:51:26.221Z,-0.70
2023-02-26T11:53:56.254Z,-0.60
2023-02-26T11:56:26.177Z,-0.60
2023-02-26T11:58:58.329Z,-0.60
2023-02-26T12:01:29.716Z,-0.50
2023-02-26T12:04:00.982Z,-0.50
2023-02-26T12:06:27.842Z,-0.50
2023-02-26T12:08:55.141Z,-0.50
2023-02-26T12:11:33.977Z,-0.50
2023-02-26T12:14:00.852Z,-0.50
2023-02-26T12:16:47.177Z,-0.50
2023-02-26T12:19:35.434Z,-0.40
2023-02-26T12:22:30.604Z,-0.50
2023-02-26T12:25:25.743Z,-0.50
2023-02-26T12:28:11.315Z,-0.50
2023-02-26T12:30:53.230Z,-0.50
2023-02-26T12:33:50.761Z,-0.50
2023-02-26T12:36:28.308Z,-0.50
2023-02-26T12:39:30.659Z,-0.50
2023-02-26T12:42:25.842Z,-0.40
2023-02-26T12:45:12.341Z,-0.40
2023-02-26T12:47:57.357Z,-0.40
2023-02-26T12:50:48.593Z,-0.40
2023-02-26T12:53:37.180Z,-0.40
2023-02-26T12:56:15.688Z,-0.30
2023-02-26T12:59:11.864Z,-0.40
2023-02-26T13:02:03.957Z,-0.30
2023-02-26T13:04:54.520Z,-0.40
2023-02-26T13:07:21.223Z,-0.30
2023-02-26T13:10:06.173Z,-0.30
2023-02-26T13:12:57.023Z,-0.30
2023-02-26T13:15:52.306Z,-0.30
2023-02-26T13:18:34.349Z,-0.20
2023-02-26T13:21:10.239Z,-0.20
2023-02-26T13:23:57.692Z,-0.30
2023-02-26T13:26:26.155Z,-0.30
2023-02-26T13:29:25.788Z,-0.10
2023-02-26T13:32:13.647Z,-0.20
2023-02-26T13:34:55.340Z,-0.20
2023-02-26T13:37:28.032Z,-0.20
2023-02-26T13:40:10.388Z,-0.20
2023-02-26T13:42:50.744Z,-0.20
2023-02-26T13:45:26.824Z,-0.20
2023-02-26T13:48:19.508Z,-0.20
2023-02-26T13:51:12.262Z,-0.20
2023-02-26T13:53:38.928Z,-0.20
2023-02-26T13:56:22.255Z,-0.10
2023-02-26T13:59:12.288Z,-0.10
2023-02-26T14:01:53.658Z,0.00
2023-02-26T14:04:22.266Z,0.00
2023-02-26T14:07:16.679Z,0.10
2023-02-26T14:10:05.191Z,0.10
2023-02-26T14:12:42.240Z,0.20
2023-02-26T14:15:12.099Z,0.20
2023-02-26T14:18:00.823Z,0.20
2023-02-26T14:20:30.365Z,0.30
2023-02-26T14:23:12.146Z,0.50
2023-02-26T14:25:38.804Z,0.60
2023-02-26T14:28:25.060Z,0.60
2023-02-26T14:31:05.900Z,0.50
2023-02-26T14:33:40.018Z,0.40
2023-02-26T14:36:18.014Z,0.40
2023-02-26T14:38:45.440Z,0.40
2023-02-26T14:41:29.386Z,0.50
2023-02-26T14:44:11.869Z,0.50
2023-02-26T14:46:39.685Z,0.60
2023-02-26T14:49:20.398Z,0.60
2023-02-26T14:52:24.953Z,0.60
2023-02-26T14:55:09.909Z,0.60
2023-02-26T14:57:57.458Z,0.60
2023-02-26T15:00:39.846Z,0.60
2023-02-26T15:03:38.702Z,0.60
2023-02-26T15:06:19.532Z,0.70
2023-02-26T15:09:24.658Z,0.70
2023-02-26T15:12:30.553Z,0.70
2023-02-26T15:15:17.299Z,0.70
2023-02-26T15:18:07.748Z,0.70
2023-02-26T15:20:37.536Z,0.60
2023-02-26T15:23:24.319Z,0.60
2023-02-26T15:25:51.471Z,0.60
2023-02-26T15:28:37.804Z,0.60
2023-02-26T15:31:06.635Z,0.60
2023-02-26T15:33:34.279Z,0.60
2023-02-26T15:36:05.149Z,0.60
2023-02-26T15:38:41.381Z,0.50
2023-02-26T15:41:08.630Z,0.50
2023-02-26T15:43:36.658Z,0.50
2023-02-26T15:46:04.411Z,0.40
2023-02-26T15:48:38.469Z,0.50
2023-02-26T15:51:08.948Z,0.40
2023-02-26T15:53:48.613Z,0.40
2023-02-26T15:56:19.657Z,0.40
2023-02-26T15:58:54.632Z,0.40
2023-02-26T16:01:24.238Z,0.40
2023-02-26T16:03:53.580Z,0.30
2023-02-26T16:06:29.955Z,0.30
2023-02-26T16:08:58.267Z,0.40
2023-02-26T16:11:27.151Z,0.40
2023-02-26T16:13:54.577Z,0.40
2023-02-26T16:16:44.102Z,0.40
2023-02-26T16:19:16.704Z,0.40
2023-02-26T16:21:44.179Z,0.40
2023-02-26T16:24:17.835Z,0.40
2023-02-26T16:26:52.330Z,0.40
2023-02-26T16:29:25.829Z,0.40
2023-02-26T16:31:55.943Z,0.40
2023-02-26T16:34:50.394Z,0.30
2023-02-26T16:37:29.179Z,0.30
2023-02-26T16:40:11.218Z,0.30
2023-02-26T16:42:44.883Z,0.20
2023-02-26T16:45:20.679Z,0.20
2023-02-26T16:47:51.722Z,0.20
2023-02-26T16:50:27.154Z,0.20
2023-02-26T16:53:06.506Z,0.20
2023-02-26T16:55:37.219Z,0.20
2023-02-26T16:58:07.698Z,0.20
2023-02-26T17:00:37.373Z,0.20
2023-02-26T17:03:14.699Z,0.20
2023-02-26T17:05:46.782Z,0.10
2023-02-26T17:08:19.447Z,0.10
2023-02-26T17:10:54.255Z,0.10
2023-02-26T17:13:41.254Z,0.10
2023-02-26T17:16:12.484Z,0.10
2023-02-26T17:18:39.427Z,0.00
2023-02-26T17:21:06.387Z,0.00
2023-02-26T17:23:37.113Z,0.00
2023-02-26T17:26:04.796Z,0.10
2023-02-26T17:28:36.740Z,0.00
2023-02-26T17:31:04.437Z,0.00
2023-02-26T17:33:31.197Z,0.00
2023-02-26T17:36:01.356Z,0.00
2023-02-26T17:38:29.401Z,0.00
2023-02-26T17:40:58.297Z,-0.10
2023-02-26T17:43:25.416Z,-0.10
2023-02-26T17:45:52.342Z,-0.10
2023-02-26T17:48:19.200Z,-0.10
2023-02-26T17:50:51.992Z,-0.10
2023-02-26T17:53:20.430Z,-0.20
2023-02-26T17:55:49.479Z,-0.10
2023-02-26T17:58:20.311Z,-0.20
2023-02-26T18:00:49.798Z,-0.20
2023-02-26T18:03:17.930Z,-0.20
2023-02-26T18:05:44.926Z,-0.20
2023-02-26T18:08:23.492Z,-0.20
2023-02-26T18:10:51.722Z,-0.20
2023-02-26T18:13:19.047Z,-0.20
2023-02-26T18:15:46.063Z,-0.30
2023-02-26T18:18:13.999Z,-0.30
2023-02-26T18:20:41.712Z,-0.30
2023-02-26T18:23:08.737Z,-0.40
2023-02-26T18:25:37.292Z,-0.40
2023-02-26T18:28:05.011Z,-0.40
2023-02-26T18:30:34.557Z,-0.40
2023-02-26T18:33:02.329Z,-0.40
2023-02-26T18:35:31.023Z,-0.50
2023-02-26T18:37:58.045Z,-0.50
2023-02-26T18:40:26.982Z,-0.60
2023-02-26T18:42:53.777Z,-0.60
2023-02-26T18:45:21.139Z,-0.50
2023-02-26T18:47:48.513Z,-0.60
2023-02-26T18:50:17.478Z,-0.60
2023-02-26T18:52:46.952Z,-0.60
2023-02-26T18:55:18.548Z,-0.60
2023-02-26T18:58:01.296Z,-0.60
2023-02-26T19:00:28.831Z,-0.60
2023-02-26T19:02:56.105Z,-0.60
2023-02-26T19:05:26.612Z,-0.60
2023-02-26T19:07:54.848Z,-0.60
2023-02-26T19:10:22.693Z,-0.60
2023-02-26T19:12:50.893Z,-0.70
2023-02-26T19:15:18.260Z,-0.60
2023-02-26T19:17:45.007Z,-0.70
2023-02-26T19:20:13.062Z,-0.70
2023-02-26T19:22:41.962Z,-0.70
2023-02-26T19:25:09.575Z,-0.70
2023-02-26T19:27:37.251Z,-0.70
2023-02-26T19:30:06.008Z,-0.80
2023-02-26T19:32:33.085Z,-0.80
2023-02-26T19:35:00.245Z,-0.80
2023-02-26T19:37:27.132Z,-0.80
2023-02-26T19:39:53.853Z,-0.80
2023-02-26T19:42:20.822Z,-0.80
2023-02-26T19:44:47.818Z,-0.90
2023-02-26T19:47:16.741Z,-0.90
2023-02-26T19:49:43.443Z,-0.80
2023-02-26T19:52:10.232Z,-0.80
2023-02-26T19:54:36.959Z,-0.80
2023-02-26T19:57:03.681Z,-0.80
2023-02-26T19:59:30.409Z,-0.80
2023-02-26T20:01:57.224Z,-0.80
2023-02-26T20:04:24.025Z,-0.90
2023-02-26T20:06:51.024Z,-0.90
2023-02-26T20:09:19.207Z,-0.80
2023-02-26T20:11:46.378Z,-0.90
2023-02-26T20:14:13.118Z,-0.90
2023-02-26T20:16:39.801Z,-0.90
2023-02-26T20:19:06.573Z,-0.90
2023-02-26T20:21:33.991Z,-0.90
2023-02-26T20:24:00.683Z,-0.90
2023-02-26T20:26:27.520Z,-0.90
2023-02-26T20:28:54.386Z,-0.90
2023-02-26T20:31:21.203Z,-1.00
2023-02-26T20:33:48.034Z,-1.00
2023-02-26T20:36:14.992Z,-1.10
2023-02-26T20:38:42.799Z,-1.00
2023-02-26T20:41:10.681Z,-1.00
2023-02-26T20:43:38.201Z,-1.10
2023-02-26T20:46:05.989Z,-1.10
2023-02-26T20:48:34.533Z,-1.10
2023-02-26T20:51:02.909Z,-1.10
2023-02-26T20:53:29.698Z,-1.20
2023-02-26T20:55:56.657Z,-1.20
2023-02-26T20:58:26.106Z,-1.20
2023-02-26T21:00:55.875Z,-1.30
2023-02-26T21:03:22.742Z,-1.30
2023-02-26T21:05:49.595Z,-1.30
2023-02-26T21:08:16.391Z,-1.30
2023-02-26T21:10:43.562Z,-1.30
2023-02-26T21:13:10.293Z,-1.30
2023-02-26T21:15:37.400Z,-1.40
2023-02-26T21:18:04.211Z,-1.40
2023-02-26T21:20:32.642Z,-1.40
2023-02-26T21:22:59.547Z,-1.40
2023-02-26T21:25:26.394Z,-1.40
2023-02-26T21:27:53.256Z,-1.40
2023-02-26T21:30:19.987Z,-1.40
2023-02-26T21:32:46.639Z,-1.40
2023-02-26T21:35:15.997Z,-1.50
2023-02-26T21:37:46.239Z,-1.40
2023-02-26T21:40:15.119Z,-1.40
2023-02-26T21:42:43.370Z,-1.50
2023-02-26T21:45:10.685Z,-1.50
2023-02-26T21:47:37.786Z,-1.50
2023-02-26T21:50:06.036Z,-1.50
2023-02-26T21:52:33.096Z,-1.50
2023-02-26T21:54:59.928Z,-1.50
2023-02-26T21:57:27.101Z,-1.50
2023-02-26T21:59:53.941Z,-1.50
2023-02-26T22:02:20.903Z,-1.50
2023-02-26T22:04:47.975Z,-1.50
2023-02-26T22:07:14.936Z,-1.50
2023-02-26T22:09:41.960Z,-1.60
2023-02-26T22:12:08.894Z,-1.60
2023-02-26T22:14:36.935Z,-1.50
2023-02-26T22:17:03.882Z,-1.60
2023-02-26T22:19:30.740Z,-1.60
2023-02-26T22:21:57.514Z,-1.60
2023-02-26T22:24:24.929Z,-1.70
2023-02-26T22:26:52.177Z,-1.70
2023-02-26T22:29:19.353Z,-1.70
2023-02-26T22:31:47.669Z,-1.80
2023-02-26T22:34:15.038Z,-1.70
2023-02-26T22:36:41.841Z,-1.80
2023-02-26T22:39:08.633Z,-1.80
2023-02-26T22:41:36.274Z,-1.90
2023-02-26T22:44:03.990Z,-1.80
2023-02-26T22:46:31.421Z,-1.90
2023-02-26T22:48:58.592Z,-1.90
2023-02-26T22:51:25.783Z,-1.90
2023-02-26T22:53:52.746Z,-1.90
2023-02-26T22:56:19.649Z,-2.00
2023-02-26T22:58:46.346Z,-2.00
2023-02-26T23:01:13.378Z,-1.90
2023-02-26T23:03:40.131Z,-2.00
2023-02-26T23:06:07.645Z,-2.00
2023-02-26T23:08:34.586Z,-2.00
2023-02-26T23:11:02.325Z,-2.10
2023-02-26T23:13:34.082Z,-2.10
2023-02-26T23:16:02.981Z,-2.00
2023-02-26T23:18:30.248Z,-2.00
2023-02-26T23:20:57.024Z,-2.10
2023-02-26T23:23:23.834Z,-2.10
2023-02-26T23:25:50.594Z,-2.20
2023-02-26T23:28:17.440Z,-2.20
2023-02-26T23:30:44.573Z,-2.20
2023-02-26T23:33:12.384Z,-2.20
2023-02-26T23:35:39.396Z,-2.20
2023-02-26T23:38:06.578Z,-2.20
2023-02-26T23:40:33.484Z,-2.20
2023-02-26T23:43:00.598Z,-2.20
2023-02-26T23:45:27.419Z,-2.30
2023-02-26T23:47:54.087Z,-2.30
2023-02-26T23:50:21.243Z,-2.30
2023-02-26T23:52:48.048Z,-2.30
2023-02-26T23:55:14.827Z,-2.30
2023-02-26T23:57:42.961Z,-2.40
